createdAt,value
2019-03-23T00:02:20.545Z,99.90
2019-03-23T00:04:48.368Z,99.90
2019-03-23T00:07:17.176Z,99.90
2019-03-23T00:09:45.019Z,99.90
2019-03-23T00:12:12.931Z,99.90
2019-03-23T00:14:41.012Z,99.90
2019-03-23T00:17:10.484Z,99.90
2019-03-23T00:19:38.447Z,99.90
2019-03-23T00:22:06.850Z,99.90
2019-03-23T00:24:34.785Z,99.90
2019-03-23T00:27:03.263Z,99.90
2019-03-23T00:29:31.352Z,99.90
2019-03-23T00:31:59.744Z,99.90
2019-03-23T00:34:27.539Z,99.90
2019-03-23T00:36:55.760Z,99.90
2019-03-23T00:39:23.701Z,99.90
2019-03-23T00:41:51.274Z,99.90
2019-03-23T00:44:19.518Z,99.90
2019-03-23T00:46:48.358Z,99.90
2019-03-23T00:49:16.204Z,99.90
2019-03-23T00:51:44.448Z,99.90
2019-03-23T00:54:12.224Z,99.90
2019-03-23T00:56:40.638Z,99.90
2019-03-23T00:59:09.837Z,99.90
2019-03-23T01:01:37.447Z,99.90
2019-03-23T01:04:06.727Z,99.90
2019-03-23T01:06:34.889Z,99.90
2019-03-23T01:09:04.235Z,99.90
2019-03-23T01:11:32.147Z,99.90
2019-03-23T01:14:00.038Z,99.90
2019-03-23T01:16:28.059Z,99.90
2019-03-23T01:18:56.009Z,99.90
2019-03-23T01:21:23.905Z,99.90
2019-03-23T01:23:51.792Z,99.90
2019-03-23T01:26:19.429Z,99.90
2019-03-23T01:28:46.903Z,99.90
2019-03-23T01:31:14.648Z,99.90
2019-03-23T01:33:42.151Z,99.90
2019-03-23T01:36:11.100Z,99.90
2019-03-23T01:38:38.615Z,99.90
2019-03-23T01:41:07.484Z,99.90
2019-03-23T01:43:35.557Z,99.90
2019-03-23T01:46:04.643Z,99.90
2019-03-23T01:48:32.717Z,99.90
2019-03-23T01:51:00.646Z,99.90
2019-03-23T01:53:28.216Z,99.90
2019-03-23T01:55:56.110Z,99.90
2019-03-23T01:58:24.188Z,99.90
2019-03-23T02:00:51.908Z,99.90
2019-03-23T02:03:19.567Z,99.90
2019-03-23T02:05:47.903Z,99.90
2019-03-23T02:08:16.058Z,99.90
2019-03-23T02:10:43.810Z,99.90
2019-03-23T02:13:12.283Z,99.90
2019-03-23T02:15:40.291Z,99.90
2019-03-23T02:18:08.785Z,99.90
2019-03-23T02:20:36.941Z,99.90
2019-03-23T02:23:04.677Z,99.90
2019-03-23T02:25:32.677Z,99.90
2019-03-23T02:28:00.455Z,99.90
2019-03-23T02:30:28.145Z,99.90
2019-03-23T02:32:55.740Z,99.90
2019-03-23T02:35:23.504Z,99.90
2019-03-23T02:37:51.616Z,99.90
2019-03-23T02:40:19.409Z,99.90
2019-03-23T02:42:47.142Z,99.90
2019-03-23T02:45:14.906Z,99.90
2019-03-23T02:47:42.404Z,99.90
2019-03-23T02:50:11.036Z,99.90
2019-03-23T02:52:39.001Z,99.90
2019-03-23T02:55:07.214Z,99.90
2019-03-23T02:57:35.004Z,99.90
2019-03-23T03:00:03.991Z,99.90
2019-03-23T03:02:33.645Z,99.90
2019-03-23T03:05:01.584Z,99.90
2019-03-23T03:07:41.137Z,99.90
2019-03-23T03:09:58.866Z,99.90
2019-03-23T03:12:26.613Z,99.90
2019-03-23T03:14:54.193Z,99.90
2019-03-23T03:17:21.993Z,99.90
2019-03-23T03:19:50.215Z,99.90
2019-03-23T03:22:17.767Z,99.90
2019-03-23T03:24:45.456Z,99.90
2019-03-23T03:27:13.504Z,99.90
2019-03-23T03:29:42.000Z,99.90
2019-03-23T03:32:10.643Z,99.90
2019-03-23T03:34:38.579Z,99.90
2019-03-23T03:37:06.613Z,99.90
2019-03-23T03:39:34.067Z,99.90
2019-03-23T03:42:02.409Z,99.90
2019-03-23T03:44:30.546Z,99.90
2019-03-23T03:46:58.747Z,99.90
2019-03-23T03:49:26.227Z,99.90
2019-03-23T03:51:53.756Z,99.90
2019-03-23T03:54:22.845Z,99.90
2019-03-23T03:56:50.271Z,99.90
2019-03-23T03:59:17.751Z,99.90
2019-03-23T04:01:46.341Z,99.90
2019-03-23T04:04:15.857Z,99.90
2019-03-23T04:06:43.310Z,99.90
2019-03-23T04:09:11.602Z,99.90
2019-03-23T04:11:40.172Z,99.90
2019-03-23T04:14:07.726Z,99.90
2019-03-23T04:16:36.341Z,99.90
2019-03-23T04:19:03.853Z,99.90
2019-03-23T04:21:31.748Z,99.90
2019-03-23T04:24:00.050Z,99.90
2019-03-23T04:26:28.300Z,99.90
2019-03-23T04:28:55.816Z,99.90
2019-03-23T04:31:23.248Z,99.90
2019-03-23T04:33:50.715Z,99.90
2019-03-23T04:36:18.648Z,99.90
2019-03-23T04:38:46.173Z,99.90
2019-03-23T04:41:15.118Z,99.90
2019-03-23T04:43:42.645Z,99.90
2019-03-23T04:46:11.270Z,99.90
2019-03-23T04:48:38.885Z,99.90
2019-03-23T04:51:06.485Z,99.90
2019-03-23T04:53:34.229Z,99.90
2019-03-23T04:56:01.790Z,99.90
2019-03-23T04:58:29.583Z,99.90
2019-03-23T05:00:58.271Z,99.90
2019-03-23T05:03:26.205Z,99.90
2019-03-23T05:05:53.671Z,99.90
2019-03-23T05:08:29.182Z,99.90
2019-03-23T05:10:52.068Z,99.90
2019-03-23T05:13:19.823Z,99.90
2019-03-23T05:15:47.919Z,99.90
2019-03-23T05:18:17.315Z,99.90
2019-03-23T05:20:45.235Z,99.90
2019-03-23T05:23:13.955Z,99.90
2019-03-23T05:25:42.579Z,99.90
2019-03-23T05:28:10.748Z,99.90
2019-03-23T05:30:38.755Z,99.90
2019-03-23T05:33:06.867Z,99.90
2019-03-23T05:35:35.628Z,99.90
2019-03-23T05:38:03.405Z,99.90
2019-03-23T05:40:30.882Z,99.90
2019-03-23T05:42:59.361Z,99.90
2019-03-23T05:45:28.018Z,99.90
2019-03-23T05:47:55.805Z,99.90
2019-03-23T05:50:23.441Z,99.90
2019-03-23T05:52:51.620Z,99.90
2019-03-23T05:55:20.407Z,99.90
2019-03-23T05:57:47.878Z,99.90
2019-03-23T06:00:19.586Z,99.90
2019-03-23T06:02:47.266Z,99.90
2019-03-23T06:05:16.465Z,99.90
2019-03-23T06:07:44.218Z,99.90
2019-03-23T06:10:13.274Z,99.90
2019-03-23T06:12:42.202Z,99.90
2019-03-23T06:15:10.421Z,99.90
2019-03-23T06:17:38.213Z,99.90
2019-03-23T06:20:06.635Z,99.90
2019-03-23T06:22:34.663Z,99.90
2019-03-23T06:25:02.614Z,99.90
2019-03-23T06:27:30.139Z,99.90
2019-03-23T06:29:57.706Z,99.90
2019-03-23T06:32:26.120Z,99.90
2019-03-23T06:34:53.991Z,99.90
2019-03-23T06:37:22.163Z,99.90
2019-03-23T06:39:50.173Z,99.90
2019-03-23T06:42:18.475Z,99.90
2019-03-23T06:44:46.224Z,99.90
2019-03-23T06:47:16.716Z,99.90
2019-03-23T06:49:44.464Z,99.90
2019-03-23T06:52:14.413Z,99.90
2019-03-23T06:54:42.475Z,99.90
2019-03-23T06:57:10.075Z,99.90
2019-03-23T06:59:37.612Z,99.90
2019-03-23T07:02:05.410Z,99.90
2019-03-23T07:04:33.375Z,99.90
2019-03-23T07:07:02.091Z,99.90
2019-03-23T07:09:29.531Z,99.90
2019-03-23T07:11:58.363Z,99.90
2019-03-23T07:14:26.419Z,99.90
2019-03-23T07:16:54.259Z,99.90
2019-03-23T07:19:21.914Z,99.90
2019-03-23T07:21:49.799Z,99.90
2019-03-23T07:24:19.158Z,99.90
2019-03-23T07:26:46.855Z,99.90
2019-03-23T07:29:16.358Z,99.90
2019-03-23T07:31:44.021Z,99.90
2019-03-23T07:34:11.885Z,99.90
2019-03-23T07:36:39.675Z,99.90
2019-03-23T07:39:07.286Z,99.90
2019-03-23T07:41:34.980Z,99.90
2019-03-23T07:44:02.763Z,99.90
2019-03-23T07:46:30.543Z,99.90
2019-03-23T07:48:59.307Z,99.90
2019-03-23T07:51:26.920Z,99.90
2019-03-23T07:53:54.392Z,99.90
2019-03-23T07:56:23.128Z,99.90
2019-03-23T07:58:51.095Z,99.90
2019-03-23T08:01:19.579Z,97.50
2019-03-23T08:03:47.505Z,96.60
2019-03-23T08:06:16.370Z,95.10
2019-03-23T08:08:45.948Z,94.80
2019-03-23T08:11:13.753Z,92.60
2019-03-23T08:13:42.349Z,91.10
2019-03-23T08:16:10.389Z,90.30
2019-03-23T08:18:38.486Z,87.70
2019-03-23T08:21:06.417Z,85.30
2019-03-23T08:23:37.808Z,83.10
2019-03-23T08:26:05.718Z,80.90
2019-03-23T08:28:33.591Z,83.60
2019-03-23T08:31:01.340Z,82.00
2019-03-23T08:33:29.039Z,85.10
2019-03-23T08:35:56.544Z,84.70
2019-03-23T08:38:24.554Z,89.20
2019-03-23T08:40:52.264Z,90.10
2019-03-23T08:43:20.488Z,90.40
2019-03-23T08:45:48.069Z,88.80
2019-03-23T08:48:16.270Z,89.70
2019-03-23T08:50:44.249Z,87.50
2019-03-23T08:53:11.687Z,87.60
2019-03-23T08:55:39.171Z,86.00
2019-03-23T08:58:06.756Z,87.00
2019-03-23T09:00:34.675Z,86.70
2019-03-23T09:03:03.830Z,89.00
2019-03-23T09:05:31.811Z,90.00
2019-03-23T09:07:59.416Z,91.20
2019-03-23T09:10:26.940Z,88.70
2019-03-23T09:12:54.792Z,89.70
2019-03-23T09:15:22.344Z,91.20
2019-03-23T09:17:50.027Z,86.00
2019-03-23T09:20:18.963Z,89.90
2019-03-23T09:22:46.731Z,90.40
2019-03-23T09:25:14.645Z,90.90
2019-03-23T09:27:42.551Z,91.00
2019-03-23T09:30:10.494Z,91.50
2019-03-23T09:32:38.156Z,91.90
2019-03-23T09:35:06.383Z,91.50
2019-03-23T09:37:38.094Z,91.90
2019-03-23T09:40:10.788Z,91.60
2019-03-23T09:42:34.128Z,91.40
2019-03-23T09:45:02.043Z,90.50
2019-03-23T09:47:29.872Z,89.70
2019-03-23T09:49:57.682Z,89.30
2019-03-23T09:52:25.150Z,88.70
2019-03-23T09:54:52.922Z,86.00
2019-03-23T09:57:20.694Z,80.90
2019-03-23T09:59:49.211Z,80.30
2019-03-23T10:02:17.897Z,80.60
2019-03-23T10:04:46.101Z,78.10
2019-03-23T10:07:13.528Z,75.10
2019-03-23T10:09:40.995Z,74.80
2019-03-23T10:12:08.719Z,72.40
2019-03-23T10:14:36.538Z,73.50
2019-03-23T10:17:04.289Z,72.70
2019-03-23T10:19:32.219Z,68.70
2019-03-23T10:21:59.667Z,70.60
2019-03-23T10:24:27.131Z,66.60
2019-03-23T10:26:55.071Z,68.00
2019-03-23T10:29:23.120Z,65.00
2019-03-23T10:31:50.663Z,65.80
2019-03-23T10:34:19.450Z,68.00
2019-03-23T10:36:47.495Z,68.20
2019-03-23T10:39:16.300Z,66.50
2019-03-23T10:41:44.359Z,65.20
2019-03-23T10:44:12.119Z,63.40
2019-03-23T10:46:40.581Z,65.50
2019-03-23T10:49:09.921Z,64.40
2019-03-23T10:51:37.987Z,62.70
2019-03-23T10:54:05.836Z,63.20
2019-03-23T10:56:34.731Z,64.00
2019-03-23T10:59:02.903Z,63.10
2019-03-23T11:01:30.783Z,65.30
2019-03-23T11:03:58.486Z,64.70
2019-03-23T11:06:26.591Z,64.40
2019-03-23T11:08:54.124Z,64.00
2019-03-23T11:11:22.174Z,65.90
2019-03-23T11:13:50.037Z,64.60
2019-03-23T11:16:18.416Z,65.40
2019-03-23T11:18:46.055Z,66.60
2019-03-23T11:21:13.513Z,63.10
2019-03-23T11:23:41.158Z,65.80
2019-03-23T11:26:08.837Z,66.90
2019-03-23T11:28:36.321Z,65.70
2019-03-23T11:31:03.856Z,64.10
2019-03-23T11:33:31.715Z,65.30
2019-03-23T11:36:00.007Z,67.00
2019-03-23T11:38:27.869Z,66.80
2019-03-23T11:40:55.831Z,65.50
2019-03-23T11:43:23.512Z,65.50
2019-03-23T11:45:51.045Z,64.40
2019-03-23T11:48:19.049Z,64.80
2019-03-23T11:50:46.776Z,64.10
2019-03-23T11:53:14.762Z,63.60
2019-03-23T11:55:42.302Z,62.90
2019-03-23T11:58:09.852Z,62.40
2019-03-23T12:00:37.909Z,60.50
2019-03-23T12:03:05.759Z,60.10
2019-03-23T12:05:33.683Z,59.80
2019-03-23T12:08:02.078Z,58.20
2019-03-23T12:10:30.407Z,59.50
2019-03-23T12:12:58.425Z,60.70
2019-03-23T12:15:26.787Z,59.30
2019-03-23T12:17:54.492Z,59.90
2019-03-23T12:20:22.943Z,58.70
2019-03-23T12:22:50.947Z,57.20
2019-03-23T12:25:19.214Z,57.60
2019-03-23T12:27:47.967Z,52.90
2019-03-23T12:30:16.053Z,56.20
2019-03-23T12:32:43.895Z,58.20
2019-03-23T12:35:11.453Z,54.70
2019-03-23T12:37:39.177Z,57.20
2019-03-23T12:40:07.377Z,54.30
2019-03-23T12:42:35.394Z,55.60
2019-03-23T12:45:04.215Z,56.40
2019-03-23T12:47:31.999Z,56.10
2019-03-23T12:49:59.535Z,53.40
2019-03-23T12:52:27.779Z,55.00
2019-03-23T12:54:55.379Z,55.20
2019-03-23T12:57:23.720Z,54.30
2019-03-23T12:59:51.991Z,53.90
2019-03-23T13:02:20.598Z,53.10
2019-03-23T13:04:48.484Z,53.70
2019-03-23T13:07:17.023Z,52.20
2019-03-23T13:09:45.099Z,51.90
2019-03-23T13:12:12.533Z,53.50
2019-03-23T13:14:41.895Z,51.70
2019-03-23T13:17:10.128Z,53.10
2019-03-23T13:19:37.893Z,52.50
2019-03-23T13:22:05.382Z,51.80
2019-03-23T13:24:32.831Z,51.80
2019-03-23T13:27:00.875Z,52.10
2019-03-23T13:29:28.811Z,50.90
2019-03-23T13:31:56.719Z,51.30
2019-03-23T13:34:24.987Z,52.30
2019-03-23T13:36:52.762Z,52.20
2019-03-23T13:39:20.737Z,51.40
2019-03-23T13:41:50.515Z,52.00
2019-03-23T13:44:18.364Z,51.50
2019-03-23T13:46:45.927Z,52.50
2019-03-23T13:49:14.159Z,50.20
2019-03-23T13:51:41.592Z,51.60
2019-03-23T13:54:09.082Z,53.20
2019-03-23T13:56:37.339Z,54.20
2019-03-23T13:59:05.207Z,53.90
2019-03-23T14:01:32.747Z,55.60
2019-03-23T14:04:01.344Z,55.60
2019-03-23T14:06:28.966Z,56.20
2019-03-23T14:08:56.869Z,56.10
2019-03-23T14:11:24.742Z,56.60
2019-03-23T14:13:52.384Z,57.70
2019-03-23T14:16:20.382Z,56.60
2019-03-23T14:18:48.354Z,57.70
2019-03-23T14:21:16.151Z,57.70
2019-03-23T14:23:43.963Z,58.20
2019-03-23T14:26:12.044Z,58.00
2019-03-23T14:28:39.824Z,58.20
2019-03-23T14:31:07.385Z,57.70
2019-03-23T14:33:35.165Z,58.00
2019-03-23T14:36:02.831Z,57.70
2019-03-23T14:38:30.706Z,58.40
2019-03-23T14:41:35.310Z,55.60
2019-03-23T14:44:03.190Z,56.60
2019-03-23T14:46:31.172Z,58.00
2019-03-23T14:49:01.786Z,57.30
2019-03-23T14:51:28.790Z,56.20
2019-03-23T14:53:56.675Z,57.10
2019-03-23T14:56:25.508Z,58.60
2019-03-23T14:58:53.315Z,57.20
2019-03-23T15:01:23.237Z,58.90
2019-03-23T15:03:51.079Z,59.60
2019-03-23T15:06:19.387Z,59.30
2019-03-23T15:08:47.464Z,59.40
2019-03-23T15:11:15.531Z,59.40
2019-03-23T15:13:43.131Z,59.10
2019-03-23T15:16:10.963Z,58.80
2019-03-23T15:18:38.824Z,59.00
2019-03-23T15:21:07.209Z,59.20
2019-03-23T15:23:35.071Z,59.00
2019-03-23T15:26:03.043Z,60.00
2019-03-23T15:28:32.114Z,59.80
2019-03-23T15:30:59.668Z,60.60
2019-03-23T15:33:28.187Z,60.30
2019-03-23T15:35:55.825Z,61.40
2019-03-23T15:38:25.788Z,62.20
2019-03-23T15:40:53.892Z,64.10
2019-03-23T15:43:21.692Z,65.00
2019-03-23T15:45:49.230Z,65.80
2019-03-23T15:48:16.923Z,65.80
2019-03-23T15:50:44.792Z,68.10
2019-03-23T15:53:13.039Z,69.10
2019-03-23T15:55:41.756Z,70.80
2019-03-23T15:58:10.853Z,72.80
2019-03-23T16:00:38.623Z,74.10
2019-03-23T16:03:06.423Z,75.10
2019-03-23T16:05:34.082Z,76.40
2019-03-23T16:08:02.428Z,79.20
2019-03-23T16:10:30.473Z,80.30
2019-03-23T16:12:58.039Z,82.50
2019-03-23T16:15:26.442Z,85.40
2019-03-23T16:17:54.797Z,87.30
2019-03-23T16:20:23.843Z,90.00
2019-03-23T16:22:51.965Z,89.80
2019-03-23T16:25:19.876Z,90.40
2019-03-23T16:27:47.634Z,91.00
2019-03-23T16:30:19.871Z,91.50
2019-03-23T16:32:47.817Z,91.50
2019-03-23T16:35:15.263Z,92.10
2019-03-23T16:37:43.479Z,93.20
2019-03-23T16:40:11.980Z,93.30
2019-03-23T16:42:45.287Z,93.30
2019-03-23T16:45:09.954Z,94.10
2019-03-23T16:47:37.916Z,94.30
2019-03-23T16:50:07.595Z,95.00
2019-03-23T16:52:36.336Z,95.80
2019-03-23T16:55:05.371Z,96.00
2019-03-23T16:57:33.666Z,96.40
2019-03-23T17:00:01.682Z,96.60
2019-03-23T17:02:29.544Z,96.70
2019-03-23T17:04:57.427Z,97.30
2019-03-23T17:07:25.716Z,97.20
2019-03-23T17:09:53.859Z,97.60
2019-03-23T17:12:23.032Z,98.30
2019-03-23T17:14:50.809Z,98.80
2019-03-23T17:17:18.567Z,99.10
2019-03-23T17:19:46.874Z,99.10
2019-03-23T17:22:14.467Z,99.30
2019-03-23T17:24:43.511Z,99.70
2019-03-23T17:27:11.292Z,99.90
2019-03-23T17:29:39.228Z,99.90
2019-03-23T17:32:06.920Z,99.90
2019-03-23T17:34:34.971Z,99.90
2019-03-23T17:37:02.713Z,99.90
2019-03-23T17:39:30.801Z,99.90
2019-03-23T17:41:58.537Z,99.90
2019-03-23T17:44:28.601Z,99.90
2019-03-23T17:46:56.234Z,99.90
2019-03-23T17:49:23.721Z,99.90
2019-03-23T17:51:51.876Z,99.90
2019-03-23T17:54:20.831Z,99.90
2019-03-23T17:56:48.505Z,99.90
2019-03-23T17:59:16.203Z,99.90
2019-03-23T18:01:43.976Z,99.90
2019-03-23T18:04:12.084Z,99.90
2019-03-23T18:06:40.218Z,99.90
2019-03-23T18:09:08.218Z,99.90
2019-03-23T18:11:35.896Z,99.90
2019-03-23T18:14:03.679Z,99.90
2019-03-23T18:16:31.647Z,99.90
2019-03-23T18:18:59.447Z,99.90
2019-03-23T18:21:28.616Z,99.90
2019-03-23T18:23:56.446Z,99.90
2019-03-23T18:26:24.517Z,99.90
2019-03-23T18:28:52.617Z,99.90
2019-03-23T18:31:21.506Z,99.90
2019-03-23T18:33:49.723Z,99.90
2019-03-23T18:36:17.583Z,99.90
2019-03-23T18:38:45.155Z,99.90
2019-03-23T18:41:13.527Z,99.90
2019-03-23T18:43:41.304Z,99.90
2019-03-23T18:46:09.303Z,99.90
2019-03-23T18:48:37.272Z,99.90
2019-03-23T18:51:05.145Z,99.90
2019-03-23T18:53:32.755Z,99.90
2019-03-23T18:56:01.181Z,99.90
2019-03-23T18:58:30.212Z,99.90
2019-03-23T19:00:58.348Z,99.90
2019-03-23T19:03:25.942Z,99.90
2019-03-23T19:05:54.359Z,99.90
2019-03-23T19:08:22.073Z,99.90
2019-03-23T19:10:50.394Z,99.90
2019-03-23T19:13:18.165Z,99.90
2019-03-23T19:15:45.615Z,99.90
2019-03-23T19:18:13.116Z,99.90
2019-03-23T19:20:40.802Z,99.90
2019-03-23T19:23:08.763Z,99.90
2019-03-23T19:25:36.859Z,99.90
2019-03-23T19:28:51.887Z,99.90
2019-03-23T19:31:21.958Z,99.90
2019-03-23T19:33:50.144Z,99.90
2019-03-23T19:36:17.953Z,99.90
2019-03-23T19:38:45.781Z,99.90
2019-03-23T19:41:13.951Z,99.90
2019-03-23T19:43:49.051Z,99.90
2019-03-23T19:46:10.857Z,99.90
2019-03-23T19:48:38.889Z,99.90
2019-03-23T19:51:06.935Z,99.90
2019-03-23T19:53:34.368Z,99.90
2019-03-23T19:56:02.326Z,99.90
2019-03-23T19:58:31.318Z,99.90
2019-03-23T20:00:59.157Z,99.90
2019-03-23T20:03:27.343Z,99.90
2019-03-23T20:05:55.175Z,99.90
2019-03-23T20:08:24.603Z,99.90
2019-03-23T20:10:53.899Z,99.90
2019-03-23T20:13:21.585Z,99.90
2019-03-23T20:15:49.439Z,99.90
2019-03-23T20:18:17.343Z,99.90
2019-03-23T20:20:45.375Z,99.90
2019-03-23T20:23:13.002Z,99.90
2019-03-23T20:25:41.197Z,99.90
2019-03-23T20:28:08.623Z,99.90
2019-03-23T20:30:37.096Z,99.90
2019-03-23T20:33:05.797Z,99.90
2019-03-23T20:35:33.822Z,99.90
2019-03-23T20:38:01.321Z,99.90
2019-03-23T20:40:30.234Z,99.90
2019-03-23T20:42:57.856Z,99.90
2019-03-23T20:45:28.050Z,99.90
2019-03-23T20:47:55.831Z,99.90
2019-03-23T20:50:23.485Z,99.90
2019-03-23T20:52:51.320Z,99.90
2019-03-23T20:55:29.658Z,99.90
2019-03-23T20:57:57.575Z,99.90
2019-03-23T21:00:25.123Z,99.90
2019-03-23T21:02:53.439Z,99.90
2019-03-23T21:05:21.024Z,99.90
2019-03-23T21:07:49.192Z,99.90
2019-03-23T21:10:17.019Z,99.90
2019-03-23T21:12:44.863Z,99.90
2019-03-23T21:15:13.028Z,99.90
2019-03-23T21:17:50.725Z,99.90
2019-03-23T21:20:11.079Z,99.90
2019-03-23T21:22:38.947Z,99.90
2019-03-23T21:25:07.535Z,99.90
2019-03-23T21:27:35.398Z,99.90
2019-03-23T21:30:04.531Z,99.90
2019-03-23T21:32:33.299Z,99.90
2019-03-23T21:35:01.469Z,99.90
2019-03-23T21:37:29.199Z,99.90
2019-03-23T21:39:57.367Z,99.90
2019-03-23T21:42:25.166Z,99.90
2019-03-23T21:44:52.760Z,99.90
2019-03-23T21:47:20.839Z,99.90
2019-03-23T21:49:48.439Z,99.90
2019-03-23T21:52:16.163Z,99.90
2019-03-23T21:54:43.765Z,99.90
2019-03-23T21:57:11.643Z,99.90
2019-03-23T21:59:39.426Z,99.90
2019-03-23T22:02:07.066Z,99.90
2019-03-23T22:04:36.296Z,99.90
2019-03-23T22:07:03.945Z,99.90
2019-03-23T22:09:33.328Z,99.90
2019-03-23T22:12:02.020Z,99.90
2019-03-23T22:14:40.990Z,99.90
2019-03-23T22:17:00.091Z,99.90
2019-03-23T22:19:27.869Z,99.90
2019-03-23T22:21:55.937Z,99.90
2019-03-23T22:24:24.096Z,99.90
2019-03-23T22:26:51.801Z,99.90
2019-03-23T22:29:20.389Z,99.90
2019-03-23T22:31:48.861Z,99.90
2019-03-23T22:34:16.603Z,99.90
2019-03-23T22:36:44.646Z,99.90
2019-03-23T22:39:12.550Z,99.90
2019-03-23T22:41:40.003Z,99.90
2019-03-23T22:44:07.863Z,99.90
2019-03-23T22:46:36.443Z,99.90
2019-03-23T22:49:04.217Z,99.90
2019-03-23T22:51:32.727Z,99.90
2019-03-23T22:54:00.967Z,99.90
2019-03-23T22:56:28.439Z,99.90
2019-03-23T22:58:56.707Z,99.90
2019-03-23T23:01:24.545Z,99.90
2019-03-23T23:03:52.491Z,99.90
2019-03-23T23:06:20.083Z,99.90
2019-03-23T23:08:47.768Z,99.90
2019-03-23T23:11:16.641Z,99.90
2019-03-23T23:13:44.138Z,99.90
2019-03-23T23:16:11.683Z,99.90
2019-03-23T23:18:39.575Z,99.90
2019-03-23T23:21:07.291Z,99.90
2019-03-23T23:23:35.717Z,99.90
2019-03-23T23:26:03.823Z,99.90
2019-03-23T23:28:31.658Z,99.90
2019-03-23T23:30:59.435Z,99.90
2019-03-23T23:33:27.020Z,99.90
2019-03-23T23:35:54.565Z,99.90
2019-03-23T23:38:22.026Z,99.90
2019-03-23T23:40:49.694Z,99.90
2019-03-23T23:43:17.196Z,99.90
2019-03-23T23:45:44.728Z,99.90
2019-03-23T23:48:12.652Z,99.90
2019-03-23T23:50:41.604Z,99.90
2019-03-23T23:53:09.279Z,99.90
2019-03-23T23:55:37.928Z,99.90
2019-03-23T23:58:06.272Z,99.90
